Tiempo atmosférico en la estación meteorológica de Girona Aeropuerto, Girona (143 m.)

Fecha
DESCASC
Temp. máxima en grados centígrados (hora)
DESCASC
Temp. mínima en grados centígrados (hora)
DESCASC
Temp. media en grados centígrados
DESCASC
Racha de viento máxima en m/sg (hora)
DESCASC
Velocidad máxima media en intervalos de 10 minutos(hora)
DESCASC
Precipitaciones diarias en mm
DESCASC
Precipitaciones de 00:00 a 06:00 en mm
DESCASC
Precipitaciones de 06:00 a 12:00 en mm
DESCASC
Precipitaciones de 12:00 a 18:00 en mm
DESCASC
Precipitaciones de 18:00 a 24:00 en mm
DESCASC
17-08-2017 33.8 (13:50) 18.2 (06:20) 26 9.17 (14:10) 6.67 (15:50) 0 0 0 0 0
16-08-2017 32.3 (16:20) 19 (07:20) 25.6 7.22 (00:40) 5 (00:10) 0 0 0 0 0
15-08-2017 31.3 (13:40) 15.3 (00:00) 23.3 12.5 (16:00) 8.06 (16:00) 0.1 0 0 0 0.1
14-08-2017 31.9 (12:50) 16.7 (07:00) 24.3 13.89 (16:20) 10.28 (17:10) 0 0 0 0 0
13-08-2017 29.1 (15:40) 15.9 (00:00) 22.5 10.28 (13:50) 7.22 (14:30) 0 0 0 0 0
12-08-2017 28.2 (15:10) 16 (00:00) 22.1 10.28 (16:50) 6.94 (15:50) 0 0 0 0 0
11-08-2017 25.1 (16:10) 13.9 (00:00) 19.5 9.72 (16:30) 6.11 (16:10) 0 0 0 0 0
10-08-2017 27 (14:50) 14.9 (00:00) 20.9 14.44 (17:50) 8.06 (17:00) 32.6 0 0 3.4 29.2
09-08-2017 29.6 (14:00) 14.7 (00:00) 22.2 9.72 (09:40) 6.67 (09:40) 1.5 0 0 0 1.5
08-08-2017 25.5 (18:00) 18.2 (00:00) 21.9 9.17 (15:20) 6.11 (07:30) 1.3 0 0 1.3 0
07-08-2017 32.8 (14:40) 20.8 (00:00) 26.8 16.39 (15:30) 11.67 (14:50) 0 0 0 0 0
06-08-2017 34.1 (16:30) 21.7 (00:00) 27.9 9.72 (12:40) 7.5 (12:40) 0 0 0 0 0
05-08-2017 37.3 (13:50) 21.9 (00:00) 29.6 12.5 (15:30) 8.06 (16:10) 0 0 0 0 0
04-08-2017 38.1 (14:00) 20.7 (00:00) 29.4 8.89 (14:30) 6.11 (14:40) 0 0 0 0 0
03-08-2017 38.4 (13:20) 21.4 (00:00) 29.9 10.28 (14:40) 7.22 (14:40) 0 0 0 0 0
02-08-2017 36.6 (13:40) 19.7 (00:00) 28.1 10.83 (15:30) 8.06 (15:20) 0 0 0 0 0
01-08-2017 33.7 (16:50) 22 (00:00) 27.9 8.33 (16:30) 4.72 (17:00) 0 0 0 0 0
31-07-2017 36 (15:20) 21.3 (00:00) 28.6 8.89 (14:20) 5.56 (17:30) 0 0 0 0 0
30-07-2017 34.1 (14:10) 20.1 (00:00) 27.1 8.33 (15:10) 5.83 (17:10) 0 0 0 0 0
29-07-2017 32.5 (13:30) 18.2 (00:00) 25.4 14.44 (15:30) 11.11 (17:00) 0 0 0 0 0
28-07-2017 31.7 (14:00) 19.2 (00:00) 25.5 12.5 (15:50) 9.17 (15:00) 0 0 0 0 0
27-07-2017 32 (14:50) 16 (00:00) 24 10.28 (18:00) 7.22 (17:20) 0 0 0 0 0
26-07-2017 28.6 (14:20) 16.1 (00:00) 22.4 8.89 (14:40) 6.11 (16:40) 3.7 3.7 0 0 0
25-07-2017 29.5 (14:10) 16.1 (00:00) 22.8 10.28 (16:10) 7.5 (16:10) 0 0 0 0 0
24-07-2017 29.4 (16:00) 16.7 (00:00) 23.1 9.17 (15:40) 6.39 (15:20) 1.6 0 0 0 1.6
23-07-2017 32 (14:10) 18.6 (00:00) 25.3 13.33 (13:50) 8.61 (20:10) 2 0 0 0 2
22-07-2017 31.8 (16:30) 17.4 (00:00) 24.6 12.5 (17:40) 8.89 (18:20) 0 0 0 0 0
21-07-2017 28.4 (11:10) 17.6 (00:00) 23 7.22 (12:40) 5.56 (18:30) 1.1 0 0 1.1 0
20-07-2017 30.5 (16:40) 21.6 (00:00) 26.1 12.5 (05:00) 8.33 (05:00) 0 0 0 0 0
19-07-2017 31.9 (11:40) 21.1 (00:00) 26.5 12.5 (15:00) 8.89 (15:10) 0 0 0 0 0

Gráficas

Temp. máximas Temp. mínimas Temp. medias Precipitaciones Rachas de viento máximas Velocidades máximas media en intervalos de 10 minutos

Datos horarios

Fecha y hora oficial Temperatura (ºC) Velocidad del viento (km/h) Dirección del viento Racha (km/h) Dirección de racha Precipitación (mm) Presión (hPa) Tendencia (hPa) Humedad (%)
2017-08-17 23:00:00 24 2 Sudoeste 8 Sudoeste 0 1002.8 0.5 81
2017-08-17 22:00:00 24.9 0 Calma 13 Sudoeste 0 1002.9 0.6 77
2017-08-17 21:00:00 25.9 11 Sudoeste 22 Sur 0 1002.7 0.4 72
2017-08-17 20:00:00 27.9 14 Sur 24 Sur 0 1002.3 -0.1 64
2017-08-17 19:00:00 29.2 16 Sur 28 Sur 0 1002.3 -0.3 58
2017-08-17 18:00:00 30.1 16 Sur 32 Sur 0 1002.3 -0.3 54
2017-08-17 17:00:00 31.1 23 Sur 30 Sur 0 1002.4 -0.4 51
2017-08-17 16:00:00 31.8 21 Sur 33 Sur 0 1002.6 0 47
2017-08-17 15:00:00 32.8 22 Sur 33 Sur 0 1002.6 -0.4 40
2017-08-17 14:00:00 33.8 18 Sur 28 Este 0 1002.8 -0.6 37
2017-08-17 13:00:00 33 3 Sudoeste 17 Este 0 1002.6 -0.9 38
2017-08-17 12:00:00 31.6 4 Sudeste 18 Sur 0 1003 -0.6 42
2017-08-17 11:00:00 29.1 0 Calma 11 Sudeste 0 1003.4 0 51
2017-08-17 10:00:00 26.6 0 Calma 8 Este 0 1003.5 0.3 61
2017-08-17 09:00:00 22.8 2 Sur 5 Sur 0 1003.6 0.7 75
2017-08-17 08:00:00 19.4 0 Calma 4 Nordeste 0 1003.4 0.2 88
2017-08-17 07:00:00 18.7 0 Calma 5 Oeste 0 1003.2 0.1 90
2017-08-17 06:00:00 18.4 0 Calma 5 Oeste 0 1002.9 -0.2 91
2017-08-17 05:00:00 19.2 0 Calma 2 Nordeste 0 1003.2 -0.1 89
2017-08-17 04:00:00 19.7 0 Calma -- -- 0 1003.1 -0.3 86
2017-08-17 03:00:00 20.2 0 Calma 5 Este 0 1003.1 -0.6 85
2017-08-17 02:00:00 20.3 3 Este 4 Este 0 1003.3 -0.6 84
2017-08-17 01:00:00 21.1 2 Oeste 4 Oeste 0 1003.4 -0.4 80
2017-08-17 00:00:00 21.7 0 Calma 4 Nordeste 0 1003.7 0.4 79
2017-08-16 23:00:00 22.3 0 Calma 4 Nordeste 0 1003.9 1 75
2017-08-16 22:00:00 23.8 0 Calma 5 Sudoeste 0 1003.8 1.4 69
2017-08-16 21:00:00 25.2 2 Sudoeste 11 Sudoeste 0 1003.3 1.1 62
2017-08-16 20:00:00 26.8 6 Sur 17 Sudeste 0 1002.9 0.8 58
2017-08-16 19:00:00 27.9 11 Sudeste 24 Sudeste 0 1002.4 0.3 55
2017-08-16 18:00:00 30.5 13 Sudeste 24 Sudeste 0 1002.2 -0.3 49
2017-08-16 17:00:00 32.1 17 Sudeste 24 Sudeste 0 1002.1 -0.7 44
2017-08-16 16:00:00 31.5 14 Sudeste 22 Sudeste 0 1002.1 -1.2 47
2017-08-16 15:00:00 30.8 16 Este 26 Este 0 1002.5 -1.1 49
2017-08-16 14:00:00 31.3 3 Sudeste 17 Este 0 1002.8 -1 45
2017-08-16 13:00:00 30.4 2 Sudeste 13 Sur 0 1003.3 -0.5 46
2017-08-16 12:00:00 28.7 4 Sudeste 18 Este 0 1003.6 -0.4 54
2017-08-16 11:00:00 27.1 5 Nordeste 17 Nordeste 0 1003.8 0 62
2017-08-16 10:00:00 23.6 4 Nordeste 8 Nordeste 0 1003.8 0.1 82
2017-08-16 09:00:00 22.3 2 Nordeste 8 Nordeste 0 1004 0.4 89
2017-08-16 08:00:00 20.3 0 Calma 8 Nordeste 0 1003.8 0 97
2017-08-16 07:00:00 19.4 4 Norte 5 Nordeste 0 1003.7 -0.4 96
2017-08-16 06:00:00 19.5 2 Oeste 5 Oeste 0 1003.6 -0.7 96
2017-08-16 05:00:00 20.3 0 Calma 8 Norte 0 1003.8 -0.4 95
2017-08-16 04:00:00 20.7 6 Norte 11 Norte 0 1004.1 0.7 95
2017-08-16 03:00:00 21 3 Norte 5 Norte 0 1004.3 0.3 94
2017-08-16 02:00:00 21.8 4 Norte 18 Nordeste 0 1004.2 0.5 93
2017-08-16 01:00:00 22.2 17 Nordeste 26 Nordeste 0 1003.4 -0.2 93
2017-08-16 00:00:00 22.7 18 Nordeste 26 Nordeste 0 1004 1.4 94
2017-08-15 23:00:00 23 6 Norte 13 Norte 0 1003.7 0.3 94
2017-08-15 22:00:00 23.7 0 Calma 17 Sur 0 1003.6 1.7 90
2017-08-15 21:00:00 24.6 12 Sudeste 24 Sur 0.1 1002.6 0.9 86
2017-08-15 20:00:00 25.8 12 Sudoeste 21 Sur 0 1003.4 0.8 75
2017-08-15 19:00:00 27.6 12 Sudeste 21 Sudeste 0 1001.9 -0.9 67
2017-08-15 18:00:00 28.5 13 Sudeste 28 Sur 0 1001.7 -1.2 53
2017-08-15 17:00:00 30.3 22 Sur 41 Sur 0 1002.6 -0.6 45
2017-08-15 16:00:00 29.8 29 Sur 45 Sudoeste 0 1002.8 -0.3 50
2017-08-15 15:00:00 30 27 Sur 41 Sur 0 1002.9 -0.6 48
2017-08-15 14:00:00 30.7 26 Sur 33 Sur 0 1003.2 -0.7 47
2017-08-15 13:00:00 30.4 6 Sudeste 21 Sur 0 1003.1 -0.7 53
2017-08-15 12:00:00 28.8 4 Sudeste 15 Sur 0 1003.5 -0.6 56
2017-08-15 11:00:00 26.4 6 Sur 15 Sudeste 0 1003.9 -0.1 65
2017-08-15 10:00:00 24.4 0 Calma 11 Este 0 1003.8 -0.1 64
2017-08-15 09:00:00 20.3 3 Nordeste 8 Este 0 1004.1 0.6 78
2017-08-15 08:00:00 16.9 0 Calma -- -- 0 1004 0.5 91
2017-08-15 07:00:00 15.9 0 Calma 8 Norte 0 1003.9 0.3 92
2017-08-15 06:00:00 15.6 0 Calma -- -- 0 1003.5 0.1 94
2017-08-15 05:00:00 16.2 0 Calma -- -- 0 1003.5 0.2 94
2017-08-15 04:00:00 17 0 Calma 8 Oeste 0 1003.6 0.4 93
2017-08-15 03:00:00 17.6 5 Oeste 11 Sudoeste 0 1003.4 0.3 94
2017-08-15 02:00:00 18.8 0 Calma -- -- 0 1003.3 0.2 89
2017-08-15 01:00:00 20 0 Calma 8 Sur 0 1003.2 0.6 86
2017-08-15 00:00:00 21 4 Sudoeste 11 Sur 0 1003.1 1 83
2017-08-14 23:00:00 22 6 Sudoeste 18 Sur 0 1003.1 1.4 77
2017-08-14 22:00:00 23.1 15 Sur 26 Sur 0 1002.6 1.3 73
2017-08-14 21:00:00 24.3 15 Sur 39 Sur 0 1002.1 0.7 68
2017-08-14 20:00:00 26.3 27 Sur 45 Sur 0 1001.7 0.4 59
2017-08-14 19:00:00 28 30 Sur 46 Sur 0 1001.3 0.3 51
2017-08-14 18:00:00 28.9 35 Sur 48 Sur 0 1001.4 0 43
2017-08-14 17:00:00 29.8 37 Sur 50 Sur 0 1001.3 -0.4 41
2017-08-14 16:00:00 31 29 Sur 45 Sur 0 1001 -0.9 37
2017-08-14 15:00:00 30.7 36 Sur 46 Sur 0 1001.4 -0.6 41
2017-08-14 14:00:00 30.8 30 Sur 42 Sur 0 1001.7 -0.4 44
2017-08-14 13:00:00 31.8 19 Sur 30 Sur 0 1001.9 -0.1 38
2017-08-14 12:00:00 30.8 15 Sur 26 Sur 0 1002 0.1 31
2017-08-14 11:00:00 28 10 Sur 18 Sur 0 1002.1 0.3 42
2017-08-14 10:00:00 25.2 4 Sur 11 Sudeste 0 1002 0.6 59
2017-08-14 09:00:00 21.3 0 Calma 5 Oeste 0 1001.9 0.5 80
2017-08-14 08:00:00 18 3 Sudoeste 5 Oeste 0 1001.8 0.2 92
2017-08-14 07:00:00 16.8 0 Calma -- -- 0 1001.4 -0.5 94
2017-08-14 06:00:00 17.5 0 Calma -- -- 0 1001.4 -0.7 94
2017-08-14 05:00:00 18 0 Calma 4 Sudoeste 0 1001.6 -0.7 92
2017-08-14 04:00:00 18.3 0 Calma -- -- 0 1001.9 -0.6 92
2017-08-14 03:00:00 18.6 0 Calma 5 Oeste 0 1002.1 -0.5 91
2017-08-14 02:00:00 19.4 0 Calma 5 Nordeste 0 1002.3 -0.4 91
2017-08-14 01:00:00 20.1 0 Calma 4 Oeste 0 1002.5 0.2 89
2017-08-14 00:00:00 21.3 0 Calma 5 Sur 0 1002.6 0.6 86
2017-08-13 23:00:00 21.9 0 Calma 5 Sur 0 1002.7 0.9 82
2017-08-13 22:00:00 23.2 4 Sur 13 Sur 0 1002.3 0.8 77
2017-08-13 21:00:00 24.3 11 Sur 21 Sur 0 1002 0.3 71
2017-08-13 20:00:00 26 17 Sur 30 Sur 0 1001.8 -0.2 63
2017-08-13 19:00:00 27 22 Sur 35 Sur 0 1001.5 -0.8 57
2017-08-13 18:00:00 27.8 23 Sur 35 Sur 0 1001.7 -1.3 53
2017-08-13 17:00:00 28.8 24 Sur 35 Sur 0 1002 -1.5 48
2017-08-13 16:00:00 28.6 21 Sur 35 Sur 0 1002.3 -1.5 46
2017-08-13 15:00:00 28.3 21 Sur 35 Sur 0 1003 -1 46
2017-08-13 14:00:00 28.2 22 Sur 37 Sur 0 1003.5 -0.8 47
2017-08-13 13:00:00 29 15 Sur 26 Sur 0 1003.8 -0.3 40
2017-08-13 12:00:00 27.9 5 Sur 18 Sur 0 1004 0.1 46
2017-08-13 11:00:00 26.1 5 Sur 13 Sudeste 0 1004.3 0.7 50
2017-08-13 10:00:00 24.1 0 Calma 11 Nordeste 0 1004.1 1 58
2017-08-13 09:00:00 21.1 0 Calma 5 Nordeste 0 1003.9 0.9 79
2017-08-13 08:00:00 16.7 0 Calma 5 Norte 0 1003.6 0.3 96
2017-08-13 07:00:00 15.9 0 Calma 5 Norte 0 1003.1 -0.4 96
2017-08-13 06:00:00 16.4 0 Calma -- -- 0 1003 -1 96
2017-08-13 05:00:00 16.6 0 Calma 2 Oeste 0 1003.3 -1.3 95
2017-08-13 04:00:00 17.1 2 Oeste 5 Oeste 0 1003.5 -1.4 94
2017-08-13 03:00:00 17.5 0 Calma 5 Norte 0 1004 -0.9 94
2017-08-13 02:00:00 17.5 0 Calma 4 Norte 0 1004.6 -0.3 93
2017-08-13 01:00:00 18.3 0 Calma 4 Nordeste 0 1004.9 0.1 90
2017-08-13 00:00:00 19.4 0 Calma 4 Sudeste 0 1004.9 0.6 86
2017-08-12 23:00:00 20.2 0 Calma 4 Sur 0 1004.9 0.8 83
2017-08-12 22:00:00 21.5 4 Sudeste 13 Sudeste 0 1004.8 0.9 77
2017-08-12 21:00:00 22.4 7 Sur 21 Sur 0 1004.3 0.3 72
2017-08-12 20:00:00 23.5 17 Sur 30 Sur 0 1004.1 -0.1 67
2017-08-12 19:00:00 25.1 22 Sur 33 Sur 0 1003.9 -0.4 61
2017-08-12 18:00:00 25.8 19 Sur 35 Sur 0 1004 -0.6 57
2017-08-12 17:00:00 26.8 24 Sur 37 Sur 0 1004.2 -0.8 53
2017-08-12 16:00:00 27.2 22 Sudoeste 35 Sur 0 1004.3 -1.2 49
2017-08-12 15:00:00 27.6 15 Sur 32 Sur 0 1004.6 -1.6 48
2017-08-12 14:00:00 27.6 4 Sudeste 24 Sur 0 1005 -1.6 47
2017-08-12 13:00:00 26.3 5 Sudeste 21 Sudeste 0 1005.5 -1.1 48
2017-08-12 12:00:00 25.1 3 Este 15 Nordeste 0 1006.2 -0.2 51
2017-08-12 11:00:00 23.7 4 Nordeste 15 Nordeste 0 1006.6 0.5 53
2017-08-12 10:00:00 21.3 10 Nordeste 17 Este 0 1006.6 0.7 55
2017-08-12 09:00:00 19.3 10 Nordeste 15 Nordeste 0 1006.4 0.9 66
2017-08-12 08:00:00 17.3 4 Norte 13 Norte 0 1006.1 0.5 80
2017-08-12 07:00:00 16.1 0 Calma 8 Norte 0 1005.9 -0.1 91
2017-08-12 06:00:00 16.4 0 Calma 8 Norte 0 1005.5 -0.8 88
2017-08-12 05:00:00 17.3 4 Norte 5 Noroeste 0 1005.6 -1.1 84
2017-08-12 04:00:00 18 3 Norte 8 Norte 0 1006 -0.7 83
2017-08-12 03:00:00 18.4 4 Norte 8 Norte 0 1006.3 -0.4 85
2017-08-12 02:00:00 18.5 0 Calma 5 Nordeste 0 1006.7 0 87
2017-08-12 01:00:00 18.9 0 Calma 5 Oeste 0 1006.7 0.5 81
2017-08-12 00:00:00 19.2 0 Calma 5 Oeste 0 1006.7 1.1 79
2017-08-11 23:00:00 19.5 0 Calma 13 Oeste 0 1006.7 1.3 74
2017-08-11 22:00:00 19.9 5 Oeste 11 Oeste 0 1006.2 1.3 72
2017-08-11 21:00:00 20.6 4 Sudoeste 13 Sudoeste 0 1005.6 0.8 64
2017-08-11 20:00:00 21 4 Sudeste 18 Sudeste 0 1005.4 1 61
2017-08-11 19:00:00 21.4 12 Sudeste 22 Sur 0 1004.9 0.5 60
2017-08-11 18:00:00 22.2 14 Sur 26 Sur 0 1004.8 0.2 59
2017-08-11 17:00:00 23.8 20 Sudeste 35 Sur 0 1004.4 -0.1 55
2017-08-11 16:00:00 23.6 22 Sur 32 Sur 0 1004.4 -0.4 57
2017-08-11 15:00:00 23.7 18 Sur 32 Sur 0 1004.6 -0.7 56
2017-08-11 14:00:00 24.4 12 Sudeste 22 Sur 0 1004.5 -0.8 51
2017-08-11 13:00:00 24 7 Nordeste 15 Nordeste 0 1004.8 -0.4 54
2017-08-11 12:00:00 22.7 3 Sur 15 Sudeste 0 1005.3 0.4 56
2017-08-11 11:00:00 21.7 6 Este 15 Este 0 1005.3 0.6 62
2017-08-11 10:00:00 20.1 9 Nordeste 18 Norte 0 1005.2 0.8 73
2017-08-11 09:00:00 17.8 5 Nordeste 11 Nordeste 0 1004.9 1 84
2017-08-11 08:00:00 15.1 7 Nordeste 13 Norte 0 1004.7 1.1 97
2017-08-11 07:00:00 14 3 Norte 8 Norte 0 1004.4 0.5 97
2017-08-11 06:00:00 14.5 3 Nordeste 4 Este 0 1003.9 -0.4 98
2017-08-11 05:00:00 14.4 0 Calma 8 Este 0 1003.6 -1.4 97
2017-08-11 04:00:00 15.1 0 Calma 8 Norte 0 1003.9 -1.6 94
2017-08-11 03:00:00 15.5 4 Noroeste 9 Norte 0 1004.3 -1.2 95
2017-08-11 02:00:00 15.7 4 Norte 11 Norte 0 1005 -0.6 94
2017-08-11 01:00:00 16.4 3 Norte 15 Norte 0 1005.5 0.3 93
2017-08-11 00:00:00 16.8 4 Norte 18 Noroeste 0 1005.5 1 92
2017-08-10 23:00:00 16.4 9 Noroeste 17 Noroeste 0 1005.6 1.6 95
2017-08-10 22:00:00 16.5 7 Norte 32 Sudeste 7 1005.2 1.3 89
2017-08-10 21:00:00 17.1 12 Nordeste 26 Noroeste 22.2 1004.5 0.3 89
2017-08-10 20:00:00 19.8 7 Norte 21 Sudeste 0 1004 0.8 80
2017-08-10 19:00:00 19.8 14 Sudeste 33 Sudeste 0 1003.9 0.4 75
2017-08-10 18:00:00 17 22 Este 52 Norte 3.4 1004.2 0.5 87
2017-08-10 17:00:00 25 29 Sur 45 Sur 0 1003.2 -0.5 47
2017-08-10 16:00:00 26 25 Sur 39 Sudoeste 0 1003.5 -0.3 45
2017-08-10 15:00:00 26.8 24 Sur 37 Sur 0 1003.7 -0.5 44
2017-08-10 14:00:00 24.7 12 Sur 28 Sur 0 1003.7 -0.7 49
2017-08-10 13:00:00 24.7 4 Sudeste 17 Sur 0 1003.8 -0.4 52
2017-08-10 12:00:00 23 5 Sur 13 Sur 0 1004.2 -0.1 60
2017-08-10 11:00:00 20.4 2 Sudoeste 11 Oeste 0 1004.4 0.4 76
2017-08-10 10:00:00 17.9 0 Calma 5 Sudeste 0 1004.2 0.6 86
2017-08-10 09:00:00 15.9 0 Calma 5 Noroeste 0 1004.3 1.3 95
2017-08-10 08:00:00 14.9 3 Norte 11 Norte 0 1004 0.8 97
2017-08-10 07:00:00 15.1 5 Norte 8 Norte 0 1003.6 0 98
2017-08-10 06:00:00 15.3 4 Norte 8 Norte 0 1003 -0.8 98
2017-08-10 05:00:00 15.6 3 Nordeste 11 Nordeste 0 1003.2 -1.1 98
2017-08-10 04:00:00 15.9 3 Sur 5 Sur 0 1003.6 -0.1 97
2017-08-10 03:00:00 15.9 3 Noroeste 8 Este 0 1003.8 -0.2 96
2017-08-10 02:00:00 16.1 0 Calma 8 Norte 0 1004.3 0.1 95
2017-08-10 01:00:00 16.1 5 Nordeste 13 Norte 0 1003.7 1 96
2017-08-10 00:00:00 16.6 5 Norte 9 Norte 1 1004 -- 92
2017-08-09 23:00:00 17.3 3 Oeste 15 Nordeste 0.1 1004.2 3.2 91
2017-08-09 22:00:00 17.4 6 Nordeste 15 Norte 0.4 1002.7 1.9 89
2017-08-09 21:00:00 -- -- -- -- -- -- -- -- --
2017-08-09 20:00:00 20.8 23 Nordeste 33 Este 0 1001 0 52
2017-08-09 19:00:00 22.9 19 Nordeste 30 Este 0 1000.8 0.3 46
2017-08-09 18:00:00 23.7 19 Nordeste 28 Nordeste 0 1000.9 0.5 41
2017-08-09 17:00:00 24.3 9 Este 33 Sudeste 0 1001 1.1 40
2017-08-09 16:00:00 26.6 15 Sudeste 32 Sur 0 1000.5 0.2 35
2017-08-09 15:00:00 26.8 15 Sudeste 26 Sudeste 0 1000.4 -0.5 36
2017-08-09 14:00:00 29.3 5 Sudeste 22 Sudeste 0 999.9 -1 31
2017-08-09 13:00:00 27.8 8 Este 28 Sur 0 1000.3 -0.4 33
2017-08-09 12:00:00 26.3 5 Nordeste 18 Nordeste 0 1000.9 0.4 36
2017-08-09 11:00:00 24.1 11 Nordeste 24 Nordeste 0 1000.9 0.3 43
2017-08-09 10:00:00 21.6 18 Nordeste 35 Nordeste 0 1000.7 0.1 52
2017-08-09 09:00:00 19.2 15 Norte 22 Norte 0 1000.5 0.1 63
2017-08-09 08:00:00 16.9 2 Norte 11 Norte 0 1000.6 0.1 71
2017-08-09 07:00:00 15.4 2 Noroeste 13 Nordeste 0 1000.6 0 75
2017-08-09 06:00:00 16.1 8 Norte 15 Norte 0 1000.4 -0.6 72
2017-08-09 05:00:00 14.8 4 Noroeste 13 Norte 0 1000.5 -0.6 80
2017-08-09 04:00:00 15.4 0 Calma 8 Norte 0 1000.6 -0.7 77
2017-08-09 03:00:00 15.4 0 Calma 8 Noroeste 0 1001 -0.1 82
2017-08-09 02:00:00 16 4 Noroeste 11 Norte 0 1001.1 0.3 77
2017-08-09 01:00:00 17.9 5 Norte 15 Norte 0 1001.3 1.1 62
2017-08-09 00:00:00 18.3 3 Nordeste 13 Nordeste 0 1001.1 1.8 63
2017-08-08 23:00:00 19.7 9 Nordeste 17 Nordeste 0 1000.8 2.2 53
2017-08-08 22:00:00 21.1 9 Nordeste 21 Este 0 1000.2 2.2 47
2017-08-08 21:00:00 22 12 Nordeste 26 Este 0 999.3 1.7 46
2017-08-08 20:00:00 23.5 14 Nordeste 26 Nordeste 0 998.6 1 45
2017-08-08 19:00:00 24.1 16 Nordeste 26 Este 0 998 0.6 43
2017-08-08 18:00:00 25.3 19 Nordeste 28 Nordeste 0 997.6 0.1 43
2017-08-08 17:00:00 24.2 16 Este 26 Nordeste 0 997.6 -0.4 56
2017-08-08 16:00:00 23.3 12 Nordeste 33 Nordeste 0 997.4 -0.3 60
2017-08-08 15:00:00 22.5 13 Nordeste 22 Nordeste 0 997.5 0.6 68
2017-08-08 14:00:00 19.8 12 Norte 30 Nordeste 1.3 998 1.1 84
2017-08-08 13:00:00 22.9 16 Nordeste 24 Nordeste 0 997.7 1.5 53
2017-08-08 12:00:00 22.8 14 Nordeste 22 Este 0 996.9 1.1 59
2017-08-08 11:00:00 21.9 11 Nordeste 18 Nordeste 0 996.9 1.5 70
2017-08-08 10:00:00 23 14 Nordeste 22 Nordeste 0 996.2 1.2 66
2017-08-08 09:00:00 23.4 17 Nordeste 28 Nordeste 0 995.8 1.4 70
2017-08-08 08:00:00 23.7 21 Nordeste 32 Norte 0 995.4 1 65
2017-08-08 07:00:00 23.8 14 Norte 24 Norte 0 995 0.4 82
2017-08-08 06:00:00 24.8 4 Sur 13 Sur 0 994.4 -0.1 88
2017-08-08 05:00:00 24.6 5 Sudoeste 17 Sur 0 994.4 -0.5 87
2017-08-08 04:00:00 23.6 4 Noroeste 11 Oeste 0 994.6 -1.3 89
2017-08-08 03:00:00 24 3 Sudoeste 17 Sudoeste 0 994.5 -1.8 86
2017-08-08 02:00:00 24.5 3 Sur 18 Sur 0 994.9 -1.7 84
2017-08-08 01:00:00 24.9 5 Sur 18 Sudoeste 0 995.9 -0.4 82
2017-08-08 00:00:00 24.9 6 Sudoeste 24 Sudoeste 0 996.3 0.8 82
2017-08-07 23:00:00 25.3 16 Sur 28 Sur 0 996.6 1.1 80
2017-08-07 22:00:00 26 23 Sur 37 Sur 0 996.3 0.9 71
2017-08-07 21:00:00 28.1 23 Sudoeste 42 Sudoeste 0 995.5 -0.5 47
2017-08-07 20:00:00 29.9 30 Sudoeste 52 Sudoeste 0 995.5 -1 42
2017-08-07 19:00:00 31.3 35 Sur 48 Sudoeste 0 995.4 -1.6 45
2017-08-07 18:00:00 31 36 Sudoeste 54 Sur 0 996 -1.5 51
2017-08-07 17:00:00 31.6 36 Sur 54 Sur 0 996.5 -1.3 52
2017-08-07 16:00:00 31.9 38 Sur 59 Sur 0 997 -1.4 50
2017-08-07 15:00:00 31.9 41 Sur 58 Sur 0 997.5 -1.5 47
2017-08-07 14:00:00 31.8 38 Sur 50 Sur 0 997.8 -1.9 48
2017-08-07 13:00:00 32.2 28 Sur 41 Sur 0 998.4 -1.6 44
2017-08-07 12:00:00 31.8 21 Sur 35 Sur 0 999 -1.1 41
2017-08-07 11:00:00 30.2 23 Sur 33 Sur 0 999.7 -0.4 41
2017-08-07 10:00:00 27.7 15 Sur 22 Sur 0 1000 -0.1 54
2017-08-07 09:00:00 25.9 8 Sur 15 Sur 0 1000.1 -0.1 66
2017-08-07 08:00:00 22.9 0 Calma 4 Sudoeste 0 1000.1 -0.4 82
2017-08-07 07:00:00 21.3 0 Calma 5 Oeste 0 1000.1 -0.6 87
2017-08-07 06:00:00 22.4 0 Calma 4 Sudeste 0 1000.2 -0.6 83
2017-08-07 05:00:00 22.7 0 Calma 5 Sur 0 1000.5 -0.6 83
2017-08-07 04:00:00 23.9 3 Sur 8 Sur 0 1000.7 -0.9 78
2017-08-07 03:00:00 24.3 0 Calma 8 Sudoeste 0 1000.8 -1 76
2017-08-07 02:00:00 24.9 5 Sudoeste 8 Sudoeste 0 1001.1 -0.8 75
2017-08-07 01:00:00 25.1 0 Calma 4 Oeste 0 1001.6 0 74
2017-08-07 00:00:00 25 2 Oeste 8 Sudoeste 0 1001.8 0.7 75
2017-08-06 23:00:00 25.6 4 Sur 15 Sudeste 0 1001.9 1.2 70
2017-08-06 22:00:00 26.3 10 Sur 21 Sur 0 1001.6 1 65
2017-08-06 21:00:00 27.1 14 Sur 21 Sur 0 1001.1 0.7 61
2017-08-06 20:00:00 28.7 12 Sur 28 Sur 0 1000.7 0.2 54
2017-08-06 19:00:00 30.5 19 Sur 28 Sur 0 1000.6 -0.1 48
2017-08-06 18:00:00 32.6 21 Sur 32 Sur 0 1000.4 -0.5 42
2017-08-06 17:00:00 32.9 15 Sur 30 Sur 0 1000.5 -0.5 40
2017-08-06 16:00:00 32.1 18 Sudoeste 26 Sudoeste 0 1000.7 -0.4 42
2017-08-06 15:00:00 33 6 Nordeste 32 Nordeste 0 1000.9 -0.3 33
2017-08-06 14:00:00 32.6 19 Nordeste 32 Nordeste 0 1001 -0.7 35
2017-08-06 13:00:00 31 24 Nordeste 35 Nordeste 0 1001.1 -1 42
2017-08-06 12:00:00 32 3 Sudeste 13 Sur 0 1001.2 -0.8 43
2017-08-06 11:00:00 28.6 4 Nordeste 18 Nordeste 0 1001.7 0.3 58
2017-08-06 10:00:00 26.6 13 Nordeste 18 Nordeste 0 1002.1 2 66
2017-08-06 09:00:00 24.4 10 Nordeste 17 Norte 0 1002 2 73
2017-08-06 08:00:00 22.5 9 Nordeste 15 Norte 0 1001.4 1.7 90
2017-08-06 07:00:00 21.9 4 Sudeste 8 Sudeste 0 1000.1 0.2 84
2017-08-06 06:00:00 23 4 Nordeste 11 Norte 0 1000 -0.1 77
2017-08-06 05:00:00 23.3 9 Norte 15 Norte 0 999.7 -0.2 75
2017-08-06 04:00:00 22.9 3 Noroeste 15 Norte 0 999.9 0 78
2017-08-06 03:00:00 23.7 6 Norte 13 Norte 0 1000.1 0 82
2017-08-06 02:00:00 23.9 0 Calma 2 Este 0 999.9 -0.1 81
2017-08-06 01:00:00 24.6 0 Calma 8 Noroeste 0 999.9 -0.3 84
2017-08-06 00:00:00 25.6 4 Noroeste 11 Norte 0 1000.1 0.6 82
2017-08-05 23:00:00 26.2 0 Calma 2 Norte 0 1000 0.8 78
2017-08-05 22:00:00 27 5 Sudoeste 13 Sur 0 1000.2 1.4 74
2017-08-05 21:00:00 28.5 8 Sur 18 Sur 0 999.5 1.2 65
2017-08-05 20:00:00 30 14 Sudeste 24 Sudeste 0 999.2 1.2 59
2017-08-05 19:00:00 31.7 14 Sur 33 Sur 0 998.8 0.8 50
2017-08-05 18:00:00 33 22 Sur 37 Sur 0 998.3 0.2 45
2017-08-05 17:00:00 33.8 28 Sur 41 Sudeste 0 998 -0.5 43
2017-08-05 16:00:00 35.9 27 Sur 45 Sudeste 0 998 -1.1 35
2017-08-05 15:00:00 36.3 28 Sur 42 Sur 0 998.1 -1.4 33
2017-08-05 14:00:00 37 22 Sur 33 Sur 0 998.5 -1.2 32
2017-08-05 13:00:00 36.5 17 Sur 30 Sur 0 999.1 -0.9 30
2017-08-05 12:00:00 35.3 11 Sudoeste 26 Sur 0 999.5 -0.5 32
2017-08-05 11:00:00 33 6 Sur 15 Sur 0 999.7 -0.2 40
2017-08-05 10:00:00 30.7 3 Sur 11 Sur 0 1000 0.3 46
2017-08-05 09:00:00 27.7 0 Calma 5 Este 0 1000 0.6 59
2017-08-05 08:00:00 24.2 0 Calma -- -- 0 999.9 0.7 71
2017-08-05 07:00:00 21.9 0 Calma -- -- 0 999.7 0.4 80
2017-08-05 06:00:00 22.3 0 Calma -- -- 0 999.4 0.3 78
2017-08-05 05:00:00 22.9 0 Calma 2 Nordeste 0 999.2 0 76
2017-08-05 04:00:00 22.5 0 Calma 8 Nordeste 0 999.3 0 77
2017-08-05 03:00:00 23.5 0 Calma 5 Oeste 0 999.1 -0.2 72
2017-08-05 02:00:00 23.9 0 Calma 8 Oeste 0 999.2 -0.3 71
2017-08-05 01:00:00 25.4 0 Calma 2 Oeste 0 999.3 0.2 65
2017-08-05 00:00:00 26.3 0 Calma 4 Nordeste 0 999.3 0.8 60
2017-08-04 23:00:00 27.1 0 Calma 8 Sudoeste 0 999.5 1.4 58
2017-08-04 22:00:00 28.6 2 Oeste 8 Sudoeste 0 999.1 1.4 53
2017-08-04 21:00:00 30.5 5 Sudoeste 18 Sudoeste 0 998.5 0.8 46
2017-08-04 20:00:00 32.8 11 Sudoeste 22 Sudoeste 0 998.1 0.4 40
2017-08-04 19:00:00 34.3 15 Sudoeste 22 Sudoeste 0 997.7 0 36
2017-08-04 18:00:00 35.1 16 Sur 28 Sudoeste 0 997.7 -0.2 36
2017-08-04 17:00:00 36.1 18 Sur 32 Sur 0 997.7 -0.5 33
2017-08-04 16:00:00 36.9 19 Sur 30 Sur 0 997.7 -0.9 31
2017-08-04 15:00:00 37.2 21 Sur 32 Sur 0 997.9 -1.2 31
2017-08-04 14:00:00 37.9 17 Sur 28 Sudeste 0 998.2 -1.1 30
2017-08-04 13:00:00 36.9 10 Sur 21 Sur 0 998.6 -0.9 29
2017-08-04 12:00:00 34.9 5 Nordeste 15 Nordeste 0 999.1 -0.4 33
2017-08-04 11:00:00 33 9 Nordeste 18 Nordeste 0 999.3 -0.1 38
2017-08-04 10:00:00 29.8 3 Nordeste 8 Nordeste 0 999.5 0.4 54
2017-08-04 09:00:00 26.8 0 Calma 5 Sudeste 0 999.5 0.8 63
2017-08-04 08:00:00 22.6 0 Calma 4 Este 0 999.4 0.6 82
2017-08-04 07:00:00 20.9 0 Calma -- -- 0 999.1 0.3 87
2017-08-04 06:00:00 21 0 Calma 2 Nordeste 0 998.7 -0.2 87
2017-08-04 05:00:00 22.1 0 Calma 4 Sudoeste 0 998.8 -0.2 78
2017-08-04 04:00:00 22.8 2 Oeste 8 Oeste 0 998.8 -0.5 74
2017-08-04 03:00:00 24.6 0 Calma 8 Norte 0 998.9 -0.4 70
2017-08-04 02:00:00 26 7 Norte 11 Norte 0 999 -0.4 65
2017-08-04 01:00:00 25.5 0 Calma 8 Norte 0 999.3 0.1 67
2017-08-04 00:00:00 28 5 Norte 13 Norte 0 999.3 0.4 57
2017-08-03 23:00:00 28.2 5 Norte 13 Norte 0 999.4 0.5 56
2017-08-03 22:00:00 28.5 3 Norte 9 Nordeste 0 999.2 0.4 55
2017-08-03 21:00:00 29.9 7 Nordeste 22 Norte 0 998.9 0.1 51
2017-08-03 20:00:00 32.1 17 Norte 24 Nordeste 0 998.9 -0.7 45
2017-08-03 19:00:00 35.4 3 Este 26 Sur 0 998.8 -1.1 28
2017-08-03 18:00:00 35.1 16 Sur 28 Sur 0 998.8 -1.2 30
2017-08-03 17:00:00 34.6 18 Sur 30 Sur 0 999.6 0 35
2017-08-03 16:00:00 34.1 17 Sudeste 37 Sudeste 0 999.9 0.4 40
2017-08-03 15:00:00 35.8 24 Sudeste 37 Sudeste 0 1000 0.2 34
2017-08-03 14:00:00 37.6 16 Sur 30 Sur 0 999.6 -0.4 36
2017-08-03 13:00:00 38 14 Sur 22 Sudeste 0 999.5 -0.6 31
2017-08-03 12:00:00 34.4 9 Nordeste 22 Nordeste 0 999.8 -0.4 38
2017-08-03 11:00:00 31.3 13 Nordeste 22 Nordeste 0 1000 -0.9 50
2017-08-03 10:00:00 28.5 14 Nordeste 18 Nordeste 0 1000.1 -0.8 59
2017-08-03 09:00:00 25.4 8 Norte 17 Norte 0 1000.2 -0.5 72
2017-08-03 08:00:00 23.2 0 Calma 4 Este 0 1000.9 0.1 81
2017-08-03 07:00:00 21.7 0 Calma 8 Nordeste 0 1000.9 0 89
2017-08-03 06:00:00 21.6 6 Nordeste 8 Nordeste 0 1000.7 -0.1 88
2017-08-03 05:00:00 22.5 4 Oeste 9 Oeste 0 1000.8 0 84
2017-08-03 04:00:00 23.2 5 Sudoeste 11 Oeste 0 1000.9 -0.1 73
2017-08-03 03:00:00 23 4 Sudoeste 8 Oeste 0 1000.8 -0.4 74
2017-08-03 02:00:00 24.8 0 Calma 4 Sur 0 1000.8 -0.4 66
2017-08-03 01:00:00 25.1 0 Calma 5 Este 0 1001 0.4 66
2017-08-03 00:00:00 26 0 Calma 5 Noroeste 0 1001.2 1 62
2017-08-02 23:00:00 28.1 3 Oeste 8 Sudoeste 0 1001.2 0.7 56
2017-08-02 22:00:00 30.2 5 Sudoeste 9 Sur 0 1000.6 -0.2 48
2017-08-02 21:00:00 32.9 3 Sur 32 Sudoeste 0 1000.2 -0.4 38
2017-08-02 20:00:00 34.3 26 Sudoeste 39 Sudoeste 0 1000.5 -0.9 33
2017-08-02 19:00:00 34.5 21 Sur 33 Sudoeste 0 1000.8 -1.4 38
2017-08-02 18:00:00 35.6 21 Sur 30 Sudoeste 0 1000.6 -1.6 34
2017-08-02 17:00:00 33.9 14 Sur 33 Sudoeste 0 1001.4 -0.1 45
2017-08-02 16:00:00 33.9 27 Sur 39 Sur 0 1002.2 0.3 46
2017-08-02 15:00:00 33.3 19 Sur 35 Sudeste 0 1002.2 -0.6 42
2017-08-02 14:00:00 35.4 14 Sur 24 Sudeste 0 1001.5 -2.1 37
2017-08-02 13:00:00 35.6 11 Sudeste 24 Sudeste 0 1001.9 -1.3 36
2017-08-02 12:00:00 33.6 5 Sudeste 15 Sur 0 1002.8 -0.1 40
2017-08-02 11:00:00 31.2 0 Calma 8 Sur 0 1003.6 1.3 47
2017-08-02 10:00:00 28.4 3 Este 13 Norte 0 1003.2 1 56
2017-08-02 09:00:00 25.8 8 Nordeste 18 Nordeste 0 1002.9 0.6 65
2017-08-02 08:00:00 22.7 13 Norte 18 Norte 0 1002.3 0.1 75
2017-08-02 07:00:00 19.9 4 Nordeste 8 Norte 0 1002.2 0 88
2017-08-02 06:00:00 20.5 3 Nordeste 11 Noroeste 0 1002.3 0.2 84
2017-08-02 05:00:00 21.6 5 Noroeste 17 Nordeste 0 1002.2 -0.7 83
2017-08-02 04:00:00 22.1 11 Nordeste 18 Norte 0 1002.2 -0.6 83
2017-08-02 03:00:00 22.2 5 Norte 11 Noroeste 0 1002.1 -0.4 88
2017-08-02 02:00:00 22 0 Calma 15 Norte 0 1002.9 0.9 91
2017-08-02 01:00:00 22.7 6 Norte 15 Norte 0 1002.8 1.9 88
2017-08-02 00:00:00 23.3 13 Norte 18 Nordeste 0 1002.5 3.3 88
2017-08-01 23:00:00 24 2 Nordeste 15 Sur 0 1002 2.5 89
2017-08-01 22:00:00 25.4 13 Sudoeste 18 Sudoeste 0 1000.9 1.4 81
2017-08-01 21:00:00 26.7 8 Oeste 22 Sudeste 0 999.2 -1.2 78
2017-08-01 20:00:00 28.1 9 Sur 17 Sur 0 999.5 -1.8 69
2017-08-01 19:00:00 28.7 2 Sur 8 Sudeste 0 999.5 0.9 66
2017-08-01 18:00:00 29.3 2 Oeste 22 Sudoeste 0 1000.4 2 62
2017-08-01 17:00:00 33 17 Sudoeste 30 Sudoeste 0 1001.3 3.1 40
2017-08-01 16:00:00 33.1 4 Sudeste 18 Este 0 998.6 0.1 46
2017-08-01 15:00:00 30.6 6 Norte 18 Nordeste 0 998.4 0.3 56
2017-08-01 14:00:00 28.4 10 Norte 26 Nordeste 0 998.2 0.4 64
2017-08-01 13:00:00 29 4 Oeste 17 Norte 0 998.5 1.1 62
2017-08-01 12:00:00 30.1 4 Este 22 Norte 0 998.1 0.9 59
2017-08-01 11:00:00 27.2 12 Nordeste 24 Este 0 997.8 1.3 70
2017-08-01 10:00:00 26.1 15 Nordeste 22 Nordeste 0 997.4 1.2 75
2017-08-01 09:00:00 24.1 8 Nordeste 15 Nordeste 0 997.2 1.7 84
2017-08-01 08:00:00 23 4 Nordeste 11 Norte 0 996.5 0.6 88
2017-08-01 07:00:00 22.6 4 Norte 18 Norte 0 996.2 0.4 91
2017-08-01 06:00:00 22.1 10 Norte 18 Norte 0 995.5 -0.7 95
2017-08-01 05:00:00 22.1 8 Norte 15 Norte 0 995.9 -0.7 95
2017-08-01 04:00:00 22.4 11 Nordeste 21 Nordeste 0 995.8 -1 94
2017-08-01 03:00:00 22.6 13 Norte 21 Norte 0 996.2 -0.7 94
2017-08-01 02:00:00 22.5 7 Norte 13 Nordeste 0 996.6 0.2 94
2017-08-01 01:00:00 23 7 Norte 11 Norte 0 996.8 1 92
2017-08-01 00:00:00 23.5 5 Norte 8 Norte 0 996.9 1.7 89
2017-07-31 23:00:00 24.5 3 Norte 8 Norte 0 996.4 1.4 85
2017-07-31 22:00:00 25.5 0 Calma 11 Sudeste 0 995.8 0.9 79
2017-07-31 21:00:00 26.9 6 Sudeste 21 Sur 0 995.2 0.2 72
2017-07-31 20:00:00 28.7 12 Sudeste 22 Sudeste 0 995 -0.1 65
2017-07-31 19:00:00 31.2 15 Sudeste 24 Sur 0 994.9 -0.6 54
2017-07-31 18:00:00 33 17 Sudeste 30 Sudeste 0 995 -0.9 44
2017-07-31 17:00:00 35.3 18 Sudeste 28 Sudeste 0 995.1 -0.9 32
2017-07-31 16:00:00 35.7 14 Sudeste 26 Sudeste 0 995.5 -1.2 31
2017-07-31 15:00:00 34.9 8 Este 32 Este 0 995.9 -1.3 38
2017-07-31 14:00:00 33.6 12 Este 24 Este 0 996 -1.2 42
2017-07-31 13:00:00 31.4 13 Nordeste 24 Nordeste 0 996.7 -0.8 48
2017-07-31 12:00:00 29.7 11 Nordeste 26 Nordeste 0 997.2 -0.5 54
2017-07-31 11:00:00 27.7 13 Nordeste 24 Nordeste 0 997.2 -0.5 64
2017-07-31 10:00:00 25.7 18 Nordeste 24 Nordeste 0 997.5 -0.1 70
2017-07-31 09:00:00 23.9 15 Nordeste 21 Nordeste 0 997.7 0.4 80
2017-07-31 08:00:00 22.2 15 Norte 24 Nordeste 0 997.7 0.2 90
2017-07-31 07:00:00 21.4 12 Norte 24 Nordeste 0 997.6 0 94
2017-07-31 06:00:00 22 16 Nordeste 26 Norte 0 997.3 -0.7 93
2017-07-31 05:00:00 22 18 Nordeste 30 Norte 0 997.5 -0.8 93
2017-07-31 04:00:00 21.7 17 Norte 24 Nordeste 0 997.6 -0.5 95
2017-07-31 03:00:00 21.9 4 Norte 15 Nordeste 0 998 0 95
2017-07-31 02:00:00 22.2 13 Nordeste 28 Nordeste 0 998.3 0.5 94
2017-07-31 01:00:00 22.7 17 Nordeste 28 Nordeste 0 998.1 0.7 93
2017-07-31 00:00:00 23.6 14 Norte 18 Norte 0 998 0.9 87
2017-07-30 23:00:00 24.5 8 Norte 13 Norte 0 997.8 1.2 78
2017-07-30 22:00:00 25.3 2 Oeste -- -- 0 997.4 0.8 68
2017-07-30 21:00:00 27.2 4 Oeste 15 Sudeste 0 997.1 0.4 55
2017-07-30 20:00:00 28.9 6 Sudeste 17 Sur 0 996.6 -0.2 60
2017-07-30 19:00:00 30 10 Sudeste 26 Sudeste 0 996.6 -0.5 56
2017-07-30 18:00:00 30.8 17 Sudeste 30 Sudeste 0 996.7 -0.7 51
2017-07-30 17:00:00 33.2 20 Sudeste 30 Sudeste 0 996.8 -0.6 36
2017-07-30 16:00:00 33.5 18 Sudeste 30 Sudeste 0 997.1 -0.5 37
2017-07-30 15:00:00 33.7 16 Sudeste 28 Sudeste 0 997.4 -0.9 38
2017-07-30 14:00:00 33.5 14 Sudeste 26 Sur 0 997.4 -1.1 42
2017-07-30 13:00:00 32.1 10 Este 22 Este 0 997.6 -0.8 49
2017-07-30 12:00:00 30.3 5 Nordeste 17 Nordeste 0 998.3 -0.2 54
2017-07-30 11:00:00 28.8 4 Este 13 Este 0 998.5 0.2 58
2017-07-30 10:00:00 26.1 4 Este 13 Norte 0 998.4 0.1 73
2017-07-30 09:00:00 23.6 9 Nordeste 15 Nordeste 0 998.5 0.3 85
2017-07-30 08:00:00 21.4 0 Calma 8 Nordeste 0 998.3 0.1 93
2017-07-30 07:00:00 20.7 6 Norte 13 Norte 0 998.3 0 96
2017-07-30 06:00:00 20.9 8 Norte 13 Norte 0 998.2 -0.3 95
2017-07-30 05:00:00 21.3 5 Norte 11 Norte 0 998.2 -0.3 93
2017-07-30 04:00:00 21.6 6 Norte 13 Norte 0 998.3 -0.3 92
2017-07-30 03:00:00 21.2 10 Norte 15 Norte 0 998.5 0.1 93
2017-07-30 02:00:00 21.3 8 Norte 11 Norte 0 998.5 0.2 93
2017-07-30 01:00:00 22.3 5 Nordeste 15 Sur 0 998.6 0.5 90
2017-07-30 00:00:00 24.4 12 Sur 18 Sur 0 998.4 0.9 85
2017-07-29 23:00:00 24.6 14 Sur 22 Sur 0 998.3 0.9 79
2017-07-29 22:00:00 25.3 13 Sur 24 Sur 0 998.1 0.9 77
2017-07-29 21:00:00 27 18 Sur 33 Sur 0 997.5 -0.1 66
2017-07-29 20:00:00 29.5 24 Sur 41 Sur 0 997.4 -0.7 54
2017-07-29 19:00:00 30.4 32 Sur 52 Sur 0 997.2 -1.5 53
2017-07-29 18:00:00 31.4 36 Sur 52 Sur 0 997.6 -1.7 48
2017-07-29 17:00:00 31.9 40 Sur 52 Sur 0 998.1 -1.8 44
2017-07-29 16:00:00 32.1 36 Sur 52 Sur 0 998.7 -1.7 41
2017-07-29 15:00:00 31.9 35 Sur 48 Sur 0 999.3 -1.6 42
2017-07-29 14:00:00 32.1 33 Sur 46 Sudoeste 0 999.9 -1.4 41
2017-07-29 13:00:00 32 26 Sur 35 Sur 0 1000.4 -1 38
2017-07-29 12:00:00 30.7 22 Sur 32 Sur 0 1000.9 -0.4 43
2017-07-29 11:00:00 28.9 19 Sur 28 Sur 0 1001.3 0.1 51
2017-07-29 10:00:00 26.9 10 Sur 17 Sudoeste 0 1001.4 0.4 62
2017-07-29 09:00:00 24.7 0 Calma 4 Este 0 1001.3 0.5 73
2017-07-29 08:00:00 21.1 0 Calma 2 Nordeste 0 1001.2 0.5 89
2017-07-29 07:00:00 18.3 0 Calma -- -- 0 1001 0 93
2017-07-29 06:00:00 18.7 0 Calma -- -- 0 1000.8 -0.5 92
2017-07-29 05:00:00 18.7 0 Calma 2 Oeste 0 1000.7 -0.6 92
2017-07-29 04:00:00 19.3 0 Calma 4 Norte 0 1001 -0.7 91
2017-07-29 03:00:00 19.7 0 Calma 5 Oeste 0 1001.3 -0.3 89
2017-07-29 02:00:00 20.6 0 Calma 4 Norte 0 1001.3 -0.4 88
2017-07-29 01:00:00 21.3 0 Calma 4 Sudoeste 0 1001.7 0.3 85
2017-07-29 00:00:00 22.3 0 Calma 8 Oeste 0 1001.6 0.8 80
2017-07-28 23:00:00 22.8 3 Oeste 8 Oeste 0 1001.7 1.4 76
2017-07-28 22:00:00 24 4 Sudoeste 15 Sudoeste 0 1001.4 1.4 71
2017-07-28 21:00:00 25.6 8 Sur 18 Sudoeste 0 1000.8 1 62
2017-07-28 20:00:00 27.6 12 Sudoeste 24 Sur 0 1000.3 0.5 53
2017-07-28 19:00:00 28.5 16 Sur 33 Sur 0 1000 0.1 50
2017-07-28 18:00:00 29.1 24 Sur 39 Sur 0 999.8 -0.2 51
2017-07-28 17:00:00 30.1 26 Sur 42 Sur 0 999.8 -0.7 48
2017-07-28 16:00:00 31.1 30 Sur 45 Sur 0 999.9 -0.8 46
2017-07-28 15:00:00 31.6 33 Sur 42 Sur 0 1000 -0.8 47
2017-07-28 14:00:00 31.6 32 Sur 42 Sur 0 1000.5 -0.3 48
2017-07-28 13:00:00 30.6 30 Sur 42 Sur 0 1000.7 -0.2 52
2017-07-28 12:00:00 29.8 25 Sur 37 Sur 0 1000.8 -0.1 54
2017-07-28 11:00:00 28.2 16 Sur 26 Sur 0 1000.8 0.3 60
2017-07-28 10:00:00 26.4 11 Sur 18 Sur 0 1000.9 0.9 70
2017-07-28 09:00:00 24.6 0 Calma 8 Sudeste 0 1000.9 1.1 75
2017-07-28 08:00:00 21.3 0 Calma 5 Este 0 1000.5 1 90
2017-07-28 07:00:00 19.2 0 Calma 2 Noroeste 0 1000 0.8 95
2017-07-28 06:00:00 20.2 0 Calma 4 Oeste 0 999.8 0.4 97
2017-07-28 05:00:00 20 0 Calma 4 Este 0 999.5 0 93
2017-07-28 04:00:00 20.4 0 Calma 4 Nordeste 0 999.2 -0.3 94
2017-07-28 03:00:00 21.5 0 Calma 4 Oeste 0 999.4 0.1 92
2017-07-28 02:00:00 22.1 0 Calma 11 Este 0 999.5 0.4 92
2017-07-28 01:00:00 23.3 3 Norte 5 Norte 0 999.5 1.1 91
2017-07-28 00:00:00 23.9 3 Noroeste 4 Noroeste 0 999.3 1.5 89
2017-07-27 23:00:00 24.7 0 Calma 9 Sur 0 999.1 2 86
2017-07-27 22:00:00 25.5 3 Sur 15 Sur 0 998.4 1.6 82
2017-07-27 21:00:00 26.8 7 Sur 18 Sur 0 997.8 1.1 75
2017-07-27 20:00:00 28.7 15 Sur 26 Sur 0 997.1 0.2 64
2017-07-27 19:00:00 30.1 21 Sur 32 Sur 0 996.8 -0.6 53
2017-07-27 18:00:00 30.9 23 Sur 37 Sur 0 996.7 -0.9 52
2017-07-27 17:00:00 31.5 23 Sur 35 Sur 0 996.9 -1.1 43
2017-07-27 16:00:00 31.5 21 Sur 32 Sur 0 997.4 -1 45
2017-07-27 15:00:00 31.7 19 Sur 30 Sur 0 997.6 -1.2 44
2017-07-27 14:00:00 31.4 13 Sur 24 Sur 0 998 -1 43
2017-07-27 13:00:00 30.5 5 Sur 18 Sur 0 998.4 -1.2 40
2017-07-27 12:00:00 28.5 6 Sur 18 Sudeste 0 998.8 -1 47
2017-07-27 11:00:00 26.4 2 Sur 11 Sudoeste 0 999 -0.4 54
2017-07-27 10:00:00 24.2 4 Sur 8 Sur 0 999.6 0.6 63
2017-07-27 09:00:00 21.4 0 Calma 4 Nordeste 0 999.8 0.9 78
2017-07-27 08:00:00 18.5 0 Calma 5 Norte 0 999.4 0.5 90
2017-07-27 07:00:00 16.7 3 Norte 8 Norte 0 999 -0.1 97
2017-07-27 06:00:00 16.5 0 Calma -- -- 0 998.9 -0.5 95
2017-07-27 05:00:00 16.7 0 Calma -- -- 0 998.9 -0.3 95
2017-07-27 04:00:00 17.4 0 Calma -- -- 0 999.1 -0.3 95
2017-07-27 03:00:00 17.9 0 Calma -- -- 0 999.4 0.2 94
2017-07-27 02:00:00 18.1 0 Calma -- -- 0 999.2 -0.2 94
2017-07-27 01:00:00 18.7 0 Calma -- -- 0 999.4 0.7 90
2017-07-27 00:00:00 19.9 0 Calma 4 Sur 0 999.2 0.9 86
2017-07-26 23:00:00 20.7 0 Calma 8 Sur 0 999.4 1.5 83
2017-07-26 22:00:00 22 3 Sudeste 15 Sur 0 998.7 1.2 75
2017-07-26 21:00:00 23 9 Sur 24 Sur 0 998.3 0.4 70
2017-07-26 20:00:00 23.7 17 Sur 24 Sur 0 997.9 0.1 66
2017-07-26 19:00:00 24.6 18 Sur 26 Sur 0 997.5 -0.5 61
2017-07-26 18:00:00 25.6 18 Sur 32 Sur 0 997.9 -0.1 57
2017-07-26 17:00:00 25.8 19 Sur 32 Sur 0 997.8 -0.4 56
2017-07-26 16:00:00 27.4 19 Sur 32 Sur 0 998 -0.7 51
2017-07-26 15:00:00 27.7 19 Sur 32 Sudeste 0 998 -0.9 50
2017-07-26 14:00:00 27.9 7 Sudoeste 22 Sudeste 0 998.2 -0.8 47
2017-07-26 13:00:00 25.9 3 Este 21 Sudeste 0 998.7 -0.4 52
2017-07-26 12:00:00 25.6 0 Calma 17 Nordeste 0 998.9 -0.4 52
2017-07-26 11:00:00 23.7 10 Nordeste 18 Nordeste 0 999 0.2 56
2017-07-26 10:00:00 21.9 9 Nordeste 17 Nordeste 0 999.1 0.6 57
2017-07-26 09:00:00 19.5 12 Nordeste 17 Nordeste 0 999.3 1.1 67
2017-07-26 08:00:00 17.7 10 Nordeste 17 Nordeste 0 998.8 0.3 76
2017-07-26 07:00:00 16.5 7 Norte 13 Norte 0 998.5 0.1 81
2017-07-26 06:00:00 17.5 6 Nordeste 15 Nordeste 0 998.2 -0.3 80
2017-07-26 05:00:00 18.3 4 Nordeste 13 Nordeste 0.1 998.5 -0.3 84
2017-07-26 04:00:00 19.3 5 Este 11 Nordeste 0.1 998.4 -0.7 90
2017-07-26 03:00:00 19.9 0 Calma 5 Norte 0 998.5 -0.4 95
2017-07-26 02:00:00 19.7 0 Calma 8 Nordeste 1.2 998.8 -0.3 95
2017-07-26 01:00:00 20.2 2 Oeste 11 Oeste 2.3 999.1 0.7 91
2017-07-26 00:00:00 21 3 Sudoeste 8 Sudoeste 0 998.9 0.7 83
2017-07-25 23:00:00 21.2 4 Oeste 8 Oeste 0 999.1 1.2 82
2017-07-25 22:00:00 21.2 5 Sudoeste 15 Oeste 0 998.4 0.6 81
2017-07-25 21:00:00 21.4 6 Sudoeste 17 Sudoeste 0 998.2 0.3 80
2017-07-25 20:00:00 22.3 8 Sudoeste 26 Sudoeste 0 997.9 -0.1 75
2017-07-25 19:00:00 23.2 18 Sudoeste 33 Sudoeste 0 997.8 -0.4 67
2017-07-25 18:00:00 24.5 22 Sudoeste 35 Sudoeste 0 997.9 -0.2 63
2017-07-25 17:00:00 24.9 24 Sur 37 Sur 0 998 -0.4 62
2017-07-25 16:00:00 26.8 24 Sur 33 Sur 0 998.2 -0.3 53
2017-07-25 15:00:00 28.2 16 Sur 35 Sudoeste 0 998.1 -0.9 49
2017-07-25 14:00:00 29.3 16 Sur 33 Sur 0 998.4 -0.8 44
2017-07-25 13:00:00 27.8 5 Sur 18 Sur 0 998.5 -1.1 46
2017-07-25 12:00:00 27.2 5 Oeste 17 Sudoeste 0 999 -0.9 48
2017-07-25 11:00:00 26 2 Este 11 Este 0 999.2 -0.6 50
2017-07-25 10:00:00 23.7 0 Calma 8 Sudeste 0 999.6 -0.2 58
2017-07-25 09:00:00 20.7 0 Calma 18 Nordeste 0 999.9 0.2 62
2017-07-25 08:00:00 18.8 12 Norte 18 Nordeste 0 999.8 0 71
2017-07-25 07:00:00 16.3 6 Norte 11 Norte 0 999.8 0 84
2017-07-25 06:00:00 17.2 2 Norte 13 Nordeste 0 999.7 -0.6 82
2017-07-25 05:00:00 18.2 10 Nordeste 18 Nordeste 0 999.8 -0.5 77
2017-07-25 04:00:00 18.1 4 Nordeste 11 Nordeste 0 999.8 -0.5 81
2017-07-25 03:00:00 19.5 6 Nordeste -- -- -- 1000.3 0.1 76
2017-07-25 02:00:00 20.9 6 Nordeste 8 Nordeste 0 1000.3 0 83
2017-07-25 01:00:00 21.6 2 Sudeste 8 Este 0 1000.3 0.2 84
2017-07-25 00:00:00 22.1 0 Calma 5 Oeste 0 1000.2 0.8 91
2017-07-24 23:00:00 22.3 3 Sudoeste 9 Sur 0 1000.3 1.5 90
2017-07-24 22:00:00 22.6 4 Sur 11 Sur 0 1000.1 1.6 89
2017-07-24 21:00:00 23 8 Sudeste 21 Sudeste 0.3 999.4 1.2 88
2017-07-24 20:00:00 24.1 12 Sudeste 22 Sudeste 1.3 998.8 0.5 81
2017-07-24 19:00:00 26.5 14 Sudeste 24 Sudeste 0 998.5 -0.1 64
2017-07-24 18:00:00 27.2 11 Sudeste 22 Sudeste 0 998.2 -0.9 60
2017-07-24 17:00:00 27.4 15 Sur 28 Sudeste 0 998.3 -0.8 60
2017-07-24 16:00:00 29.4 13 Sur 33 Sudoeste 0 998.6 -0.8 54
2017-07-24 15:00:00 27.7 11 Sur 28 Sur 0 999.1 -0.6 56
2017-07-24 14:00:00 28.5 12 Sudeste 26 Sur 0 999.1 -0.6 53
2017-07-24 13:00:00 27.8 9 Sudeste 21 Sudeste 0 999.4 -0.5 60
2017-07-24 12:00:00 26.2 2 Sudeste 11 Oeste 0 999.7 -0.1 61
2017-07-24 11:00:00 24.2 2 Norte 11 Nordeste 0 999.7 0.2 74
2017-07-24 10:00:00 22.6 4 Nordeste 13 Nordeste 0 999.9 0.4 80
2017-07-24 09:00:00 19.8 6 Nordeste 13 Este 0 999.8 0.3 92
2017-07-24 08:00:00 18.3 0 Calma 4 Oeste 0 999.5 -0.2 99
2017-07-24 07:00:00 16.8 2 Norte 5 Norte 0 999.5 -0.3 99
2017-07-24 06:00:00 16.9 3 Este 5 Nordeste 0 999.5 -1.2 98
2017-07-24 05:00:00 17 0 Calma 8 Sudoeste 0 999.7 -1.9 98
2017-07-24 04:00:00 17.3 0 Calma 4 Nordeste 0 999.8 -2 97
2017-07-24 03:00:00 17.4 3 Nordeste -- -- -- 1000.7 -1.5 97
2017-07-24 02:00:00 18 0 Calma 5 Oeste 0 1001.6 -0.1 97
2017-07-24 01:00:00 18.1 4 Oeste 9 Oeste 0 1001.8 0.8 97
2017-07-24 00:00:00 18.7 2 Sudoeste 8 Sudoeste 0 1002.2 0.9 95
2017-07-23 23:00:00 19 0 Calma 11 Oeste 0 1001.7 0.8 94
2017-07-23 22:00:00 19.6 3 Este 39 Nordeste 0 1001 -0.4 92
2017-07-23 21:00:00 20.9 24 Norte 46 Sur 1 1001.3 0.1 90
2017-07-23 20:00:00 23.9 26 Sur 37 Sur 1 1000.9 -0.5 67
2017-07-23 19:00:00 26.2 24 Sur 33 Sudoeste 0 1001.4 0 53
2017-07-23 18:00:00 27.7 25 Sur 37 Sur 0 1001.2 -0.3 46
2017-07-23 17:00:00 27.8 21 Sur 35 Sur 0 1001.4 -0.7 47
2017-07-23 16:00:00 29.9 26 Sur 39 Sur 0 1001.4 -1.1 41
2017-07-23 15:00:00 30.9 24 Sur 39 Sur 0 1001.5 -1.1 42
2017-07-23 14:00:00 31.9 24 Sur 48 Sur 0 1002.1 -0.5 42
2017-07-23 13:00:00 30.9 16 Sur 32 Sudoeste 0 1002.5 -0.2 44
2017-07-23 12:00:00 29.9 17 Sudoeste 32 Sudoeste 0 1002.6 -0.2 48
2017-07-23 11:00:00 28 0 Calma 21 Nordeste 0 1002.6 0.1 51
2017-07-23 10:00:00 25.9 17 Nordeste 30 Nordeste 0 1002.7 0.2 57
2017-07-23 09:00:00 24.6 13 Nordeste 18 Nordeste 0 1002.8 0.6 62
2017-07-23 08:00:00 22.9 7 Nordeste 13 Norte 0 1002.5 0.7 68
2017-07-23 07:00:00 22 5 Norte 11 Norte 0 1002.5 0.8 71
2017-07-23 06:00:00 22.1 5 Norte 11 Norte 0 1002.2 0.3 70
2017-07-23 05:00:00 22.4 3 Nordeste 8 Nordeste 0 1001.8 -0.4 77
2017-07-23 04:00:00 22.7 0 Calma 5 Nordeste 0 1001.7 -0.2 85
2017-07-23 03:00:00 22.9 5 Norte 8 Nordeste 0 1001.9 0.6 85
2017-07-23 02:00:00 22.2 5 Nordeste 13 Nordeste 0 1002.2 1.5 87
2017-07-23 01:00:00 22.7 5 Nordeste 11 Nordeste 0 1001.9 2.6 84
2017-07-23 00:00:00 23.6 5 Norte 13 Este 0 1001.3 3.2 80
2017-07-22 23:00:00 23.2 6 Este 11 Nordeste 0 1000.7 3.4 82
2017-07-22 22:00:00 25 4 Este 21 Sur 0 999.3 2.1 75
2017-07-22 21:00:00 26.5 15 Sur 32 Sur 0 998.1 1.1 67
2017-07-22 20:00:00 28.1 24 Sur 35 Sur 0 997.3 0.1 62
2017-07-22 19:00:00 28.7 27 Sur 42 Sur 0 997.2 -0.3 60
2017-07-22 18:00:00 30.5 30 Sur 45 Sur 0 997 -1.2 50
2017-07-22 17:00:00 31.4 30 Sur 41 Sur 0 997.2 -1.6 47
2017-07-22 16:00:00 31.3 27 Sur 41 Sur 0 997.5 -1.2 47
2017-07-22 15:00:00 30.2 24 Sur 39 Sur 0 998.2 -0.2 51
2017-07-22 14:00:00 28.7 24 Sur 41 Sur 0 998.8 0.1 55
2017-07-22 13:00:00 31.1 26 Sur 37 Sur 0 998.7 -0.2 44
2017-07-22 12:00:00 29.7 9 Sur 21 Sur 0 998.4 -0.6 44
2017-07-22 11:00:00 27.7 9 Sur 18 Sur 0 998.7 0.1 56
2017-07-22 10:00:00 25.7 0 Calma 8 Sudeste 0 998.9 0.4 65
2017-07-22 09:00:00 22.6 0 Calma 4 Sudeste 0 999 1 78
2017-07-22 08:00:00 19.6 0 Calma -- -- 0 998.6 0.7 91
2017-07-22 07:00:00 17.5 0 Calma -- -- 0 998.5 0.9 95
2017-07-22 06:00:00 18 0 Calma 8 Noroeste 0 998 0.4 95
2017-07-22 05:00:00 18.1 0 Calma 4 Norte 0 997.9 0.3 96
2017-07-22 04:00:00 18.3 0 Calma 4 Nordeste 0 997.6 -0.3 96
2017-07-22 03:00:00 18.9 0 Calma -- -- -- 997.6 0.4 94
2017-07-22 02:00:00 19.5 0 Calma 4 Norte 0 997.6 0.5 92
2017-07-22 01:00:00 20.1 0 Calma 8 Oeste 0 997.9 1.8 91
2017-07-22 00:00:00 21 6 Noroeste 13 Este 0 997.2 1.9 89
2017-07-21 23:00:00 21 3 Sudeste 8 Norte 0 997.1 2.4 88
2017-07-21 22:00:00 22.5 9 Sur 18 Sur 0 996.1 1.3 82
2017-07-21 21:00:00 24.5 5 Sur 21 Sur 0 995.3 0.1 70
2017-07-21 20:00:00 26.2 14 Sur 24 Sur 0 994.7 -1.2 64
2017-07-21 19:00:00 26.5 19 Sur 26 Sur 0 994.8 -1.5 63
2017-07-21 18:00:00 26.4 18 Sur 24 Sur 0 995.2 -1.7 63
2017-07-21 17:00:00 25 5 Sudoeste 8 Sudoeste 0 995.9 -1 65
2017-07-21 16:00:00 24.2 2 Oeste 8 Oeste 0.4 996.3 -0.5 76
2017-07-21 15:00:00 21.8 3 Noroeste 13 Norte 0.3 996.9 0.6 87
2017-07-21 14:00:00 23.2 0 Calma 15 Noroeste 0.1 996.9 0.5 75
2017-07-21 13:00:00 22.5 8 Norte 26 Noroeste 0.3 996.8 0.4 77
2017-07-21 12:00:00 26.9 5 Nordeste 15 Oeste 0 996.3 0.1 52
2017-07-21 11:00:00 28 4 Sur 13 Sudoeste 0 996.4 0.1 47
2017-07-21 10:00:00 26.3 2 Sur 8 Sur 0 996.4 0.3 51
2017-07-21 09:00:00 23.3 0 Calma 8 Oeste 0 996.2 0.3 64
2017-07-21 08:00:00 19.1 4 Oeste 8 Oeste 0 996.3 0.4 83
2017-07-21 07:00:00 17.8 0 Calma 5 Nordeste 0 996.1 0 87
2017-07-21 06:00:00 18.4 2 Nordeste 13 Noroeste 0 995.9 -0.5 83
2017-07-21 05:00:00 18.6 2 Noroeste 11 Noroeste 0 995.9 -0.9 82
2017-07-21 04:00:00 18.8 0 Calma 4 Este 0 996.1 -0.7 85
2017-07-21 03:00:00 19.3 3 Oeste -- -- -- 996.4 -0.7 83
2017-07-21 02:00:00 19.3 2 Oeste 5 Oeste 0 996.8 -0.5 83
2017-07-21 01:00:00 20.4 0 Calma 11 Norte 0 996.8 0 78
2017-07-21 00:00:00 21.6 6 Norte 11 Norte 0 997.1 0.2 75
2017-07-20 23:00:00 22.1 5 Norte 8 Norte 0 997.3 1 72
2017-07-20 22:00:00 22.8 4 Nordeste 13 Nordeste 0 996.8 0.5 69
2017-07-20 21:00:00 24.4 11 Nordeste 26 Nordeste 0 996.9 0.7 60
2017-07-20 20:00:00 26.7 21 Nordeste 32 Este 0 996.3 -0.2 50
2017-07-20 19:00:00 28.1 22 Nordeste 37 Nordeste 0 996.3 -0.8 36
2017-07-20 18:00:00 28.9 24 Nordeste 37 Nordeste 0 996.2 -1.4 40
2017-07-20 17:00:00 30.3 17 Este 28 Este 0 996.5 -1.2 37
2017-07-20 16:00:00 29.8 18 Nordeste 42 Este 0 997.1 -0.8 33
2017-07-20 15:00:00 29.1 17 Nordeste 35 Este 0 997.6 -1 40
2017-07-20 14:00:00 27.9 18 Este 32 Nordeste 0 997.7 -0.7 57
2017-07-20 13:00:00 26 18 Nordeste 32 Nordeste 0 997.9 -0.7 60
2017-07-20 12:00:00 25.9 13 Nordeste 32 Nordeste 0 998.6 0.2 66
2017-07-20 11:00:00 25.4 21 Norte 35 Nordeste 0 998.4 0.3 68
2017-07-20 10:00:00 24.7 25 Nordeste 39 Nordeste 0 998.6 0.5 70
2017-07-20 09:00:00 24.4 23 Nordeste 37 Nordeste 0 998.4 0.6 68
2017-07-20 08:00:00 23.1 19 Norte 30 Norte 0 998.1 0.3 64
2017-07-20 07:00:00 22.1 17 Nordeste 35 Nordeste 0 998.1 0.2 64
2017-07-20 06:00:00 22.2 23 Nordeste 45 Nordeste 0 997.8 0 66
2017-07-20 05:00:00 23.1 30 Nordeste 45 Nordeste 0 997.8 0.3 73
2017-07-20 04:00:00 23 8 Nordeste 26 Nordeste 0 997.9 0.6 89
2017-07-20 03:00:00 23 10 Nordeste -- -- -- 997.8 0.5 94
2017-07-20 02:00:00 23 3 Noroeste 13 Sur 0 997.5 0.1 93
2017-07-20 01:00:00 23.1 5 Sudoeste 11 Sudoeste 0 997.3 0.2 93
2017-07-20 00:00:00 23.1 6 Sudoeste 13 Oeste 0 997.3 0 90
2017-07-19 23:00:00 23.4 8 Sudoeste 17 Sur 0 997.4 0 86
2017-07-19 22:00:00 24.2 9 Sur 24 Sur 0 997.1 -0.7 80
2017-07-19 21:00:00 25.5 16 Sur 28 Sur 0 997.3 -0.8 71
2017-07-19 20:00:00 27.1 22 Sur 32 Sur 0 997.4 -0.8 66
2017-07-19 19:00:00 28.7 22 Sur 30 Sur 0 997.8 -0.8 57
2017-07-19 18:00:00 28.5 20 Sur 39 Sur 0 998.1 -0.7 58
2017-07-19 17:00:00 30 28 Sur 39 Sur 0 998.2 -0.4 52
2017-07-19 16:00:00 30.4 29 Sur 42 Sudoeste 0 998.6 0.1 47
2017-07-19 15:00:00 30.7 32 Sudoeste 45 Sur 0 998.8 0 52
2017-07-19 14:00:00 31.5 21 Sur 33 Sur 0 998.6 -0.1 46
2017-07-19 13:00:00 31.6 24 Sur 37 Sur 0 998.5 -0.4 45
2017-07-19 12:00:00 31.6 21 Sudoeste 32 Sudoeste 0 998.8 -1.1 40
2017-07-19 11:00:00 30.5 17 Sur 26 Sur 0 998.7 -1.7 41
2017-07-19 10:00:00 27.4 14 Sur 22 Sur 0 998.9 -0.5 54
2017-07-19 09:00:00 24.9 8 Sudoeste 15 Sur 0 999.9 1.2 63
2017-07-19 08:00:00 21.9 5 Oeste 8 Oeste 0 1000.4 1.6 84
2017-07-19 07:00:00 21.2 3 Oeste 5 Oeste 0 999.4 0.7 86
2017-07-19 06:00:00 21.9 2 Sur 17 Sur 0 998.7 -0.3 83
2017-07-19 05:00:00 22.3 12 Sur 21 Sur 0 998.8 -0.7 81
2017-07-19 04:00:00 22.8 14 Sudoeste 26 Sur 0 998.7 -1.2 82
2017-07-19 03:00:00 22.1 10 Sur -- -- -- 999 -1.1 85
2017-07-19 02:00:00 23 10 Sur 22 Sudoeste 0 999.5 -0.6 78
2017-07-19 01:00:00 22.9 3 Oeste 28 Sur 0 999.9 -0.3 76
2017-07-19 00:00:00 23.5 21 Sur 33 Sur 0 1000.1 0.5 76